sensor_id;sensor_type;location;lat;lon;timestamp;P1;durP1;ratioP1;P2;durP2;ratioP2
68386;SDS011;55338;43.062;25.624;2022-12-07T00:04:06;19.23;;;6.47;;
68386;SDS011;55338;43.062;25.624;2022-12-07T00:06:34;23.77;;;8.10;;
68386;SDS011;55338;43.062;25.624;2022-12-07T00:09:00;18.80;;;6.97;;
68386;SDS011;55338;43.062;25.624;2022-12-07T00:11:26;21.88;;;7.70;;
68386;SDS011;55338;43.062;25.624;2022-12-07T00:13:53;21.60;;;8.10;;
68386;SDS011;55338;43.062;25.624;2022-12-07T00:16:22;22.75;;;8.57;;
68386;SDS011;55338;43.062;25.624;2022-12-07T00:18:49;21.23;;;7.50;;
68386;SDS011;55338;43.062;25.624;2022-12-07T00:21:16;23.65;;;7.80;;
68386;SDS011;55338;43.062;25.624;2022-12-07T00:23:44;18.30;;;7.20;;
68386;SDS011;55338;43.062;25.624;2022-12-07T00:26:15;22.60;;;8.25;;
68386;SDS011;55338;43.062;25.624;2022-12-07T00:28:46;22.50;;;8.77;;
68386;SDS011;55338;43.062;25.624;2022-12-07T00:31:19;21.02;;;8.23;;
68386;SDS011;55338;43.062;25.624;2022-12-07T00:33:47;21.10;;;7.72;;
68386;SDS011;55338;43.062;25.624;2022-12-07T00:36:17;19.43;;;8.03;;
68386;SDS011;55338;43.062;25.624;2022-12-07T00:38:44;22.05;;;8.13;;
68386;SDS011;55338;43.062;25.624;2022-12-07T00:41:14;25.85;;;8.85;;
68386;SDS011;55338;43.062;25.624;2022-12-07T00:43:42;20.38;;;7.72;;
68386;SDS011;55338;43.062;25.624;2022-12-07T00:46:09;24.80;;;9.73;;
68386;SDS011;55338;43.062;25.624;2022-12-07T00:48:36;26.60;;;9.03;;
68386;SDS011;55338;43.062;25.624;2022-12-07T00:51:02;28.15;;;10.00;;
68386;SDS011;55338;43.062;25.624;2022-12-07T00:53:28;26.45;;;11.25;;
68386;SDS011;55338;43.062;25.624;2022-12-07T00:55:55;23.42;;;9.68;;
68386;SDS011;55338;43.062;25.624;2022-12-07T00:58:21;22.93;;;8.50;;
68386;SDS011;55338;43.062;25.624;2022-12-07T01:00:48;24.63;;;8.73;;
68386;SDS011;55338;43.062;25.624;2022-12-07T01:03:14;19.58;;;8.25;;
68386;SDS011;55338;43.062;25.624;2022-12-07T01:05:40;21.48;;;8.73;;
68386;SDS011;55338;43.062;25.624;2022-12-07T01:08:17;28.45;;;8.68;;
68386;SDS011;55338;43.062;25.624;2022-12-07T01:10:43;22.63;;;8.37;;
68386;SDS011;55338;43.062;25.624;2022-12-07T01:13:09;25.58;;;8.57;;
68386;SDS011;55338;43.062;25.624;2022-12-07T01:15:38;25.52;;;9.40;;
68386;SDS011;55338;43.062;25.624;2022-12-07T01:18:06;23.57;;;8.53;;
68386;SDS011;55338;43.062;25.624;2022-12-07T01:20:32;29.25;;;9.73;;
68386;SDS011;55338;43.062;25.624;2022-12-07T01:22:58;22.83;;;9.38;;
68386;SDS011;55338;43.062;25.624;2022-12-07T01:25:24;25.15;;;9.65;;
68386;SDS011;55338;43.062;25.624;2022-12-07T01:27:49;21.65;;;7.85;;
68386;SDS011;55338;43.062;25.624;2022-12-07T01:30:15;23.00;;;8.43;;
68386;SDS011;55338;43.062;25.624;2022-12-07T01:32:41;21.58;;;8.50;;
68386;SDS011;55338;43.062;25.624;2022-12-07T01:35:07;20.73;;;8.30;;
68386;SDS011;55338;43.062;25.624;2022-12-07T01:37:34;18.95;;;7.63;;
68386;SDS011;55338;43.062;25.624;2022-12-07T01:40:07;20.67;;;8.38;;
68386;SDS011;55338;43.062;25.624;2022-12-07T01:42:34;21.02;;;7.43;;
68386;SDS011;55338;43.062;25.624;2022-12-07T01:47:50;21.80;;;7.97;;
68386;SDS011;55338;43.062;25.624;2022-12-07T01:50:19;21.55;;;8.38;;
68386;SDS011;55338;43.062;25.624;2022-12-07T01:52:47;20.90;;;7.28;;
68386;SDS011;55338;43.062;25.624;2022-12-07T01:55:14;17.77;;;7.50;;
68386;SDS011;55338;43.062;25.624;2022-12-07T01:57:42;20.92;;;7.47;;
68386;SDS011;55338;43.062;25.624;2022-12-07T02:00:11;18.53;;;7.10;;
68386;SDS011;55338;43.062;25.624;2022-12-07T02:02:38;19.42;;;6.85;;
68386;SDS011;55338;43.062;25.624;2022-12-07T02:05:15;19.88;;;7.57;;
68386;SDS011;55338;43.062;25.624;2022-12-07T02:07:43;18.02;;;7.32;;
68386;SDS011;55338;43.062;25.624;2022-12-07T02:10:14;22.70;;;8.00;;
68386;SDS011;55338;43.062;25.624;2022-12-07T02:12:49;19.73;;;8.20;;
68386;SDS011;55338;43.062;25.624;2022-12-07T02:26:38;22.05;;;6.93;;
68386;SDS011;55338;43.062;25.624;2022-12-07T02:32:08;20.10;;;7.90;;
68386;SDS011;55338;43.062;25.624;2022-12-07T02:34:45;17.70;;;7.43;;
68386;SDS011;55338;43.062;25.624;2022-12-07T02:37:28;18.30;;;7.32;;
68386;SDS011;55338;43.062;25.624;2022-12-07T02:39:56;21.15;;;8.00;;
68386;SDS011;55338;43.062;25.624;2022-12-07T02:42:31;19.90;;;7.13;;
68386;SDS011;55338;43.062;25.624;2022-12-07T02:45:05;19.55;;;7.97;;
68386;SDS011;55338;43.062;25.624;2022-12-07T02:47:33;23.73;;;8.63;;
68386;SDS011;55338;43.062;25.624;2022-12-07T02:50:02;22.05;;;8.77;;
68386;SDS011;55338;43.062;25.624;2022-12-07T02:52:29;23.92;;;8.18;;
68386;SDS011;55338;43.062;25.624;2022-12-07T02:54:55;24.02;;;8.35;;
68386;SDS011;55338;43.062;25.624;2022-12-07T03:00:16;25.00;;;8.63;;
68386;SDS011;55338;43.062;25.624;2022-12-07T03:14:02;20.85;;;7.30;;
68386;SDS011;55338;43.062;25.624;2022-12-07T03:16:42;20.13;;;7.43;;
68386;SDS011;55338;43.062;25.624;2022-12-07T03:19:25;23.45;;;8.60;;
68386;SDS011;55338;43.062;25.624;2022-12-07T03:21:57;25.20;;;8.23;;
68386;SDS011;55338;43.062;25.624;2022-12-07T03:24:29;27.30;;;7.77;;
68386;SDS011;55338;43.062;25.624;2022-12-07T03:27:21;25.40;;;7.80;;
68386;SDS011;55338;43.062;25.624;2022-12-07T03:29:51;22.35;;;7.60;;
68386;SDS011;55338;43.062;25.624;2022-12-07T03:32:27;27.20;;;8.55;;
68386;SDS011;55338;43.062;25.624;2022-12-07T03:37:26;27.87;;;7.30;;
68386;SDS011;55338;43.062;25.624;2022-12-07T03:40:07;24.70;;;7.80;;
68386;SDS011;55338;43.062;25.624;2022-12-07T03:42:39;23.65;;;7.10;;
68386;SDS011;55338;43.062;25.624;2022-12-07T03:45:05;24.13;;;7.63;;
68386;SDS011;55338;43.062;25.624;2022-12-07T03:50:09;26.95;;;9.70;;
68386;SDS011;55338;43.062;25.624;2022-12-07T03:52:40;23.55;;;7.90;;
68386;SDS011;55338;43.062;25.624;2022-12-07T03:55:44;26.60;;;7.30;;
68386;SDS011;55338;43.062;25.624;2022-12-07T03:58:09;22.93;;;7.13;;
68386;SDS011;55338;43.062;25.624;2022-12-07T04:00:38;24.50;;;8.15;;
68386;SDS011;55338;43.062;25.624;2022-12-07T04:03:03;25.70;;;8.23;;
68386;SDS011;55338;43.062;25.624;2022-12-07T04:05:29;30.20;;;8.33;;
68386;SDS011;55338;43.062;25.624;2022-12-07T04:07:56;30.13;;;7.82;;
68386;SDS011;55338;43.062;25.624;2022-12-07T04:10:22;26.93;;;8.30;;
68386;SDS011;55338;43.062;25.624;2022-12-07T04:12:48;34.22;;;9.13;;
68386;SDS011;55338;43.062;25.624;2022-12-07T04:15:13;33.10;;;9.68;;
68386;SDS011;55338;43.062;25.624;2022-12-07T04:17:39;30.47;;;8.57;;
68386;SDS011;55338;43.062;25.624;2022-12-07T04:20:05;27.33;;;8.38;;
68386;SDS011;55338;43.062;25.624;2022-12-07T04:22:32;25.57;;;8.40;;
68386;SDS011;55338;43.062;25.624;2022-12-07T04:24:58;24.92;;;8.55;;
68386;SDS011;55338;43.062;25.624;2022-12-07T04:27:24;23.38;;;8.32;;
68386;SDS011;55338;43.062;25.624;2022-12-07T04:29:49;22.80;;;7.03;;
68386;SDS011;55338;43.062;25.624;2022-12-07T04:32:15;29.35;;;9.90;;
68386;SDS011;55338;43.062;25.624;2022-12-07T04:34:41;29.07;;;8.07;;
68386;SDS011;55338;43.062;25.624;2022-12-07T04:37:07;23.00;;;8.23;;
68386;SDS011;55338;43.062;25.624;2022-12-07T04:39:32;24.25;;;7.60;;
68386;SDS011;55338;43.062;25.624;2022-12-07T04:41:59;29.17;;;8.68;;
68386;SDS011;55338;43.062;25.624;2022-12-07T04:44:26;26.52;;;7.95;;
68386;SDS011;55338;43.062;25.624;2022-12-07T04:46:52;26.25;;;8.55;;
68386;SDS011;55338;43.062;25.624;2022-12-07T04:49:19;28.63;;;8.00;;
68386;SDS011;55338;43.062;25.624;2022-12-07T04:51:45;29.50;;;8.70;;
68386;SDS011;55338;43.062;25.624;2022-12-07T04:54:11;24.50;;;8.07;;
68386;SDS011;55338;43.062;25.624;2022-12-07T04:56:38;24.23;;;8.48;;
68386;SDS011;55338;43.062;25.624;2022-12-07T04:59:04;20.55;;;7.47;;
68386;SDS011;55338;43.062;25.624;2022-12-07T05:01:30;23.37;;;8.87;;
68386;SDS011;55338;43.062;25.624;2022-12-07T05:03:57;20.60;;;6.93;;
68386;SDS011;55338;43.062;25.624;2022-12-07T05:06:22;19.58;;;7.60;;
68386;SDS011;55338;43.062;25.624;2022-12-07T05:08:48;23.27;;;7.83;;
68386;SDS011;55338;43.062;25.624;2022-12-07T05:11:14;21.88;;;8.00;;
68386;SDS011;55338;43.062;25.624;2022-12-07T05:13:59;18.95;;;7.15;;
68386;SDS011;55338;43.062;25.624;2022-12-07T05:16:25;21.98;;;7.03;;
68386;SDS011;55338;43.062;25.624;2022-12-07T05:18:51;18.67;;;7.00;;
68386;SDS011;55338;43.062;25.624;2022-12-07T05:21:17;24.95;;;7.70;;
68386;SDS011;55338;43.062;25.624;2022-12-07T05:23:43;20.55;;;7.30;;
68386;SDS011;55338;43.062;25.624;2022-12-07T05:26:08;24.07;;;8.60;;
68386;SDS011;55338;43.062;25.624;2022-12-07T05:28:34;21.20;;;7.60;;
68386;SDS011;55338;43.062;25.624;2022-12-07T05:31:00;19.05;;;6.80;;
68386;SDS011;55338;43.062;25.624;2022-12-07T05:33:26;18.77;;;6.77;;
68386;SDS011;55338;43.062;25.624;2022-12-07T05:35:52;18.17;;;6.90;;
68386;SDS011;55338;43.062;25.624;2022-12-07T05:38:18;26.48;;;8.40;;
68386;SDS011;55338;43.062;25.624;2022-12-07T05:40:44;19.77;;;6.97;;
68386;SDS011;55338;43.062;25.624;2022-12-07T05:43:09;22.73;;;8.02;;
68386;SDS011;55338;43.062;25.624;2022-12-07T05:45:35;18.43;;;6.27;;
68386;SDS011;55338;43.062;25.624;2022-12-07T05:48:01;16.92;;;8.25;;
68386;SDS011;55338;43.062;25.624;2022-12-07T05:50:27;22.80;;;7.30;;
68386;SDS011;55338;43.062;25.624;2022-12-07T05:52:53;22.67;;;7.30;;
68386;SDS011;55338;43.062;25.624;2022-12-07T05:55:19;28.52;;;8.07;;
68386;SDS011;55338;43.062;25.624;2022-12-07T05:57:45;18.02;;;6.78;;
68386;SDS011;55338;43.062;25.624;2022-12-07T06:00:31;21.47;;;8.10;;
68386;SDS011;55338;43.062;25.624;2022-12-07T06:02:57;21.00;;;6.85;;
68386;SDS011;55338;43.062;25.624;2022-12-07T06:05:23;26.23;;;7.68;;
68386;SDS011;55338;43.062;25.624;2022-12-07T06:07:49;22.67;;;8.10;;
68386;SDS011;55338;43.062;25.624;2022-12-07T06:10:15;24.27;;;7.05;;
68386;SDS011;55338;43.062;25.624;2022-12-07T06:12:40;22.97;;;7.30;;
68386;SDS011;55338;43.062;25.624;2022-12-07T06:15:08;15.45;;;6.13;;
68386;SDS011;55338;43.062;25.624;2022-12-07T06:17:35;16.85;;;6.78;;
68386;SDS011;55338;43.062;25.624;2022-12-07T06:20:02;15.70;;;6.68;;
68386;SDS011;55338;43.062;25.624;2022-12-07T06:22:28;20.83;;;7.50;;
68386;SDS011;55338;43.062;25.624;2022-12-07T06:24:54;25.80;;;7.97;;
68386;SDS011;55338;43.062;25.624;2022-12-07T06:27:19;18.98;;;6.70;;
68386;SDS011;55338;43.062;25.624;2022-12-07T06:29:45;22.30;;;6.50;;
68386;SDS011;55338;43.062;25.624;2022-12-07T06:32:12;18.00;;;7.07;;
68386;SDS011;55338;43.062;25.624;2022-12-07T06:34:38;23.77;;;8.52;;
68386;SDS011;55338;43.062;25.624;2022-12-07T06:37:04;34.25;;;11.55;;
68386;SDS011;55338;43.062;25.624;2022-12-07T06:39:30;26.80;;;11.57;;
68386;SDS011;55338;43.062;25.624;2022-12-07T06:41:56;24.60;;;7.40;;
68386;SDS011;55338;43.062;25.624;2022-12-07T06:44:22;20.77;;;7.60;;
68386;SDS011;55338;43.062;25.624;2022-12-07T06:46:49;22.00;;;8.55;;
68386;SDS011;55338;43.062;25.624;2022-12-07T06:49:15;27.37;;;9.70;;
68386;SDS011;55338;43.062;25.624;2022-12-07T06:51:41;27.77;;;9.82;;
68386;SDS011;55338;43.062;25.624;2022-12-07T06:54:08;26.88;;;8.75;;
68386;SDS011;55338;43.062;25.624;2022-12-07T06:56:37;25.02;;;9.27;;
68386;SDS011;55338;43.062;25.624;2022-12-07T06:59:05;27.70;;;11.20;;
68386;SDS011;55338;43.062;25.624;2022-12-07T07:01:32;23.52;;;11.15;;
68386;SDS011;55338;43.062;25.624;2022-12-07T07:03:59;26.88;;;12.30;;
68386;SDS011;55338;43.062;25.624;2022-12-07T07:06:25;24.70;;;10.63;;
68386;SDS011;55338;43.062;25.624;2022-12-07T07:08:51;29.60;;;9.73;;
68386;SDS011;55338;43.062;25.624;2022-12-07T07:11:17;34.42;;;10.40;;
68386;SDS011;55338;43.062;25.624;2022-12-07T07:13:44;21.02;;;9.15;;
68386;SDS011;55338;43.062;25.624;2022-12-07T07:16:10;39.60;;;10.20;;
68386;SDS011;55338;43.062;25.624;2022-12-07T07:18:35;26.30;;;10.93;;
68386;SDS011;55338;43.062;25.624;2022-12-07T07:21:01;31.90;;;10.60;;
68386;SDS011;55338;43.062;25.624;2022-12-07T07:23:28;24.02;;;9.23;;
68386;SDS011;55338;43.062;25.624;2022-12-07T07:25:53;26.17;;;9.68;;
68386;SDS011;55338;43.062;25.624;2022-12-07T07:28:20;18.85;;;8.07;;
68386;SDS011;55338;43.062;25.624;2022-12-07T07:30:46;20.93;;;8.13;;
68386;SDS011;55338;43.062;25.624;2022-12-07T07:33:12;19.20;;;7.32;;
68386;SDS011;55338;43.062;25.624;2022-12-07T07:35:38;18.38;;;8.00;;
68386;SDS011;55338;43.062;25.624;2022-12-07T07:38:04;19.10;;;8.40;;
68386;SDS011;55338;43.062;25.624;2022-12-07T07:40:30;18.87;;;7.00;;
68386;SDS011;55338;43.062;25.624;2022-12-07T07:42:57;20.95;;;8.32;;
68386;SDS011;55338;43.062;25.624;2022-12-07T07:45:24;19.13;;;8.15;;
68386;SDS011;55338;43.062;25.624;2022-12-07T07:47:51;23.48;;;9.30;;
68386;SDS011;55338;43.062;25.624;2022-12-07T07:50:17;18.13;;;8.10;;
68386;SDS011;55338;43.062;25.624;2022-12-07T07:52:43;19.50;;;8.32;;
68386;SDS011;55338;43.062;25.624;2022-12-07T07:55:10;19.13;;;8.27;;
68386;SDS011;55338;43.062;25.624;2022-12-07T07:57:37;18.35;;;8.75;;
68386;SDS011;55338;43.062;25.624;2022-12-07T08:00:05;19.00;;;8.70;;
68386;SDS011;55338;43.062;25.624;2022-12-07T08:02:33;18.85;;;7.47;;
68386;SDS011;55338;43.062;25.624;2022-12-07T08:05:00;16.15;;;7.40;;
68386;SDS011;55338;43.062;25.624;2022-12-07T08:07:27;15.77;;;7.00;;
68386;SDS011;55338;43.062;25.624;2022-12-07T08:09:53;15.25;;;7.13;;
68386;SDS011;55338;43.062;25.624;2022-12-07T08:12:21;13.50;;;6.50;;
68386;SDS011;55338;43.062;25.624;2022-12-07T08:14:46;16.25;;;7.18;;
68386;SDS011;55338;43.062;25.624;2022-12-07T08:17:12;13.88;;;6.28;;
68386;SDS011;55338;43.062;25.624;2022-12-07T08:19:38;15.32;;;6.70;;
68386;SDS011;55338;43.062;25.624;2022-12-07T08:22:04;18.50;;;8.38;;
68386;SDS011;55338;43.062;25.624;2022-12-07T08:24:32;19.00;;;8.60;;
68386;SDS011;55338;43.062;25.624;2022-12-07T08:26:59;20.67;;;8.45;;
68386;SDS011;55338;43.062;25.624;2022-12-07T08:29:25;17.83;;;7.70;;
68386;SDS011;55338;43.062;25.624;2022-12-07T08:31:50;15.57;;;6.80;;
68386;SDS011;55338;43.062;25.624;2022-12-07T08:34:16;17.02;;;8.23;;
68386;SDS011;55338;43.062;25.624;2022-12-07T08:36:42;15.85;;;7.22;;
68386;SDS011;55338;43.062;25.624;2022-12-07T08:39:08;16.57;;;7.13;;
68386;SDS011;55338;43.062;25.624;2022-12-07T08:41:34;14.02;;;5.97;;
68386;SDS011;55338;43.062;25.624;2022-12-07T08:44:00;13.13;;;6.18;;
68386;SDS011;55338;43.062;25.624;2022-12-07T08:46:28;16.10;;;6.60;;
68386;SDS011;55338;43.062;25.624;2022-12-07T08:49:09;14.50;;;6.82;;
68386;SDS011;55338;43.062;25.624;2022-12-07T08:51:39;16.20;;;6.35;;
68386;SDS011;55338;43.062;25.624;2022-12-07T08:54:07;13.63;;;6.28;;
68386;SDS011;55338;43.062;25.624;2022-12-07T08:56:35;12.67;;;5.93;;
68386;SDS011;55338;43.062;25.624;2022-12-07T08:59:01;17.85;;;6.38;;
68386;SDS011;55338;43.062;25.624;2022-12-07T09:01:28;11.48;;;5.68;;
68386;SDS011;55338;43.062;25.624;2022-12-07T09:03:55;16.67;;;6.18;;
68386;SDS011;55338;43.062;25.624;2022-12-07T09:06:21;17.27;;;7.40;;
68386;SDS011;55338;43.062;25.624;2022-12-07T09:08:49;14.48;;;7.18;;
68386;SDS011;55338;43.062;25.624;2022-12-07T09:11:17;14.45;;;6.30;;
68386;SDS011;55338;43.062;25.624;2022-12-07T09:13:43;14.32;;;6.15;;
68386;SDS011;55338;43.062;25.624;2022-12-07T09:16:09;13.63;;;7.38;;
68386;SDS011;55338;43.062;25.624;2022-12-07T09:18:35;16.50;;;6.20;;
68386;SDS011;55338;43.062;25.624;2022-12-07T09:21:01;16.40;;;7.65;;
68386;SDS011;55338;43.062;25.624;2022-12-07T09:23:27;15.07;;;7.70;;
68386;SDS011;55338;43.062;25.624;2022-12-07T09:25:53;15.40;;;7.03;;
68386;SDS011;55338;43.062;25.624;2022-12-07T09:28:19;16.50;;;8.50;;
68386;SDS011;55338;43.062;25.624;2022-12-07T09:30:48;19.98;;;8.95;;
68386;SDS011;55338;43.062;25.624;2022-12-07T09:33:14;17.52;;;8.25;;
68386;SDS011;55338;43.062;25.624;2022-12-07T09:35:44;15.18;;;7.60;;
68386;SDS011;55338;43.062;25.624;2022-12-07T09:38:11;15.55;;;8.63;;
68386;SDS011;55338;43.062;25.624;2022-12-07T09:40:37;16.53;;;7.17;;
68386;SDS011;55338;43.062;25.624;2022-12-07T09:43:03;15.38;;;7.28;;
68386;SDS011;55338;43.062;25.624;2022-12-07T09:45:33;15.75;;;8.05;;
68386;SDS011;55338;43.062;25.624;2022-12-07T09:48:04;21.67;;;8.25;;
68386;SDS011;55338;43.062;25.624;2022-12-07T09:50:31;20.13;;;7.75;;
68386;SDS011;55338;43.062;25.624;2022-12-07T09:53:14;16.27;;;8.18;;
68386;SDS011;55338;43.062;25.624;2022-12-07T09:56:01;18.42;;;8.70;;
68386;SDS011;55338;43.062;25.624;2022-12-07T09:58:28;20.25;;;10.07;;
68386;SDS011;55338;43.062;25.624;2022-12-07T10:01:00;18.90;;;10.32;;
68386;SDS011;55338;43.062;25.624;2022-12-07T10:03:36;21.02;;;9.30;;
68386;SDS011;55338;43.062;25.624;2022-12-07T10:06:04;25.13;;;9.57;;
68386;SDS011;55338;43.062;25.624;2022-12-07T10:08:31;18.00;;;8.60;;
68386;SDS011;55338;43.062;25.624;2022-12-07T10:10:57;18.02;;;9.80;;
68386;SDS011;55338;43.062;25.624;2022-12-07T10:16:01;15.38;;;7.40;;
68386;SDS011;55338;43.062;25.624;2022-12-07T10:18:34;16.00;;;7.63;;
68386;SDS011;55338;43.062;25.624;2022-12-07T10:21:13;13.98;;;8.02;;
68386;SDS011;55338;43.062;25.624;2022-12-07T10:24:02;15.60;;;7.80;;
68386;SDS011;55338;43.062;25.624;2022-12-07T10:26:35;14.80;;;8.18;;
68386;SDS011;55338;43.062;25.624;2022-12-07T10:31:49;16.90;;;8.18;;
68386;SDS011;55338;43.062;25.624;2022-12-07T10:34:29;17.90;;;9.38;;
68386;SDS011;55338;43.062;25.624;2022-12-07T10:39:39;16.42;;;8.13;;
68386;SDS011;55338;43.062;25.624;2022-12-07T10:42:33;16.88;;;7.68;;
68386;SDS011;55338;43.062;25.624;2022-12-07T10:50:27;17.02;;;7.85;;
68386;SDS011;55338;43.062;25.624;2022-12-07T11:11:33;17.58;;;8.80;;
68386;SDS011;55338;43.062;25.624;2022-12-07T11:22:04;16.85;;;8.15;;
68386;SDS011;55338;43.062;25.624;2022-12-07T11:41:47;16.08;;;9.20;;
68386;SDS011;55338;43.062;25.624;2022-12-07T11:44:25;16.90;;;8.38;;
68386;SDS011;55338;43.062;25.624;2022-12-07T11:47:17;14.55;;;7.93;;
68386;SDS011;55338;43.062;25.624;2022-12-07T11:52:32;15.93;;;8.82;;
68386;SDS011;55338;43.062;25.624;2022-12-07T11:58:07;18.67;;;8.80;;
68386;SDS011;55338;43.062;25.624;2022-12-07T12:00:47;16.92;;;9.48;;
68386;SDS011;55338;43.062;25.624;2022-12-07T12:03:17;15.77;;;8.90;;
68386;SDS011;55338;43.062;25.624;2022-12-07T12:05:55;16.58;;;9.25;;
68386;SDS011;55338;43.062;25.624;2022-12-07T12:08:24;17.52;;;8.93;;
68386;SDS011;55338;43.062;25.624;2022-12-07T12:16:58;17.05;;;9.98;;
68386;SDS011;55338;43.062;25.624;2022-12-07T12:22:10;16.08;;;9.32;;
68386;SDS011;55338;43.062;25.624;2022-12-07T12:24:37;17.45;;;9.75;;
68386;SDS011;55338;43.062;25.624;2022-12-07T12:27:06;15.02;;;8.55;;
68386;SDS011;55338;43.062;25.624;2022-12-07T12:29:39;17.85;;;8.45;;
68386;SDS011;55338;43.062;25.624;2022-12-07T12:32:22;15.02;;;8.60;;
68386;SDS011;55338;43.062;25.624;2022-12-07T12:35:01;14.82;;;9.10;;
68386;SDS011;55338;43.062;25.624;2022-12-07T12:37:46;14.55;;;8.25;;
68386;SDS011;55338;43.062;25.624;2022-12-07T12:45:22;14.02;;;8.52;;
68386;SDS011;55338;43.062;25.624;2022-12-07T12:47:56;19.13;;;8.63;;
68386;SDS011;55338;43.062;25.624;2022-12-07T12:50:28;15.53;;;8.07;;
68386;SDS011;55338;43.062;25.624;2022-12-07T12:52:57;14.32;;;8.57;;
68386;SDS011;55338;43.062;25.624;2022-12-07T13:00:43;14.80;;;8.85;;
68386;SDS011;55338;43.062;25.624;2022-12-07T13:03:29;15.50;;;8.87;;
68386;SDS011;55338;43.062;25.624;2022-12-07T13:08:50;13.38;;;8.13;;
68386;SDS011;55338;43.062;25.624;2022-12-07T13:11:40;16.70;;;9.07;;
68386;SDS011;55338;43.062;25.624;2022-12-07T13:19:56;16.95;;;7.97;;
68386;SDS011;55338;43.062;25.624;2022-12-07T13:24:57;14.70;;;7.90;;
68386;SDS011;55338;43.062;25.624;2022-12-07T13:27:42;14.02;;;7.28;;
68386;SDS011;55338;43.062;25.624;2022-12-07T13:30:15;13.37;;;6.57;;
68386;SDS011;55338;43.062;25.624;2022-12-07T13:32:43;13.35;;;6.53;;
68386;SDS011;55338;43.062;25.624;2022-12-07T13:35:26;14.82;;;7.53;;
68386;SDS011;55338;43.062;25.624;2022-12-07T13:38:16;18.73;;;6.35;;
68386;SDS011;55338;43.062;25.624;2022-12-07T13:41:05;13.60;;;6.60;;
68386;SDS011;55338;43.062;25.624;2022-12-07T13:46:29;14.45;;;6.00;;
68386;SDS011;55338;43.062;25.624;2022-12-07T13:49:16;11.70;;;6.03;;
68386;SDS011;55338;43.062;25.624;2022-12-07T13:51:44;14.00;;;6.60;;
68386;SDS011;55338;43.062;25.624;2022-12-07T13:54:11;14.98;;;6.43;;
68386;SDS011;55338;43.062;25.624;2022-12-07T13:56:38;17.43;;;7.77;;
68386;SDS011;55338;43.062;25.624;2022-12-07T13:59:05;16.45;;;6.82;;
68386;SDS011;55338;43.062;25.624;2022-12-07T14:01:41;13.82;;;7.15;;
68386;SDS011;55338;43.062;25.624;2022-12-07T14:04:32;17.77;;;9.00;;
68386;SDS011;55338;43.062;25.624;2022-12-07T14:07:01;18.73;;;9.75;;
68386;SDS011;55338;43.062;25.624;2022-12-07T14:12:24;26.25;;;12.13;;
68386;SDS011;55338;43.062;25.624;2022-12-07T14:14:51;18.73;;;8.77;;
68386;SDS011;55338;43.062;25.624;2022-12-07T14:17:20;15.45;;;8.10;;
68386;SDS011;55338;43.062;25.624;2022-12-07T14:19:51;18.67;;;7.40;;
68386;SDS011;55338;43.062;25.624;2022-12-07T14:22:25;16.47;;;7.20;;
68386;SDS011;55338;43.062;25.624;2022-12-07T14:27:38;21.48;;;8.82;;
68386;SDS011;55338;43.062;25.624;2022-12-07T14:30:05;14.90;;;7.40;;
68386;SDS011;55338;43.062;25.624;2022-12-07T14:32:34;16.77;;;7.10;;
68386;SDS011;55338;43.062;25.624;2022-12-07T14:37:36;17.08;;;8.10;;
68386;SDS011;55338;43.062;25.624;2022-12-07T14:40:03;21.10;;;8.18;;
68386;SDS011;55338;43.062;25.624;2022-12-07T14:42:30;19.60;;;8.30;;
68386;SDS011;55338;43.062;25.624;2022-12-07T14:44:58;18.45;;;8.57;;
68386;SDS011;55338;43.062;25.624;2022-12-07T14:47:25;22.57;;;9.00;;
68386;SDS011;55338;43.062;25.624;2022-12-07T14:49:52;16.45;;;7.47;;
68386;SDS011;55338;43.062;25.624;2022-12-07T14:52:28;17.92;;;9.05;;
68386;SDS011;55338;43.062;25.624;2022-12-07T14:54:55;22.38;;;8.70;;
68386;SDS011;55338;43.062;25.624;2022-12-07T14:57:21;17.63;;;8.30;;
68386;SDS011;55338;43.062;25.624;2022-12-07T14:59:47;18.08;;;9.02;;
68386;SDS011;55338;43.062;25.624;2022-12-07T15:02:13;22.70;;;9.02;;
68386;SDS011;55338;43.062;25.624;2022-12-07T15:04:40;28.42;;;11.82;;
68386;SDS011;55338;43.062;25.624;2022-12-07T15:07:09;36.47;;;10.80;;
68386;SDS011;55338;43.062;25.624;2022-12-07T15:09:39;37.72;;;11.73;;
68386;SDS011;55338;43.062;25.624;2022-12-07T15:12:05;34.47;;;12.23;;
68386;SDS011;55338;43.062;25.624;2022-12-07T15:14:32;25.77;;;10.73;;
68386;SDS011;55338;43.062;25.624;2022-12-07T15:16:58;25.58;;;9.52;;
68386;SDS011;55338;43.062;25.624;2022-12-07T15:19:24;19.40;;;9.18;;
68386;SDS011;55338;43.062;25.624;2022-12-07T15:21:53;17.75;;;7.55;;
68386;SDS011;55338;43.062;25.624;2022-12-07T15:24:19;21.48;;;8.68;;
68386;SDS011;55338;43.062;25.624;2022-12-07T15:26:45;18.73;;;9.23;;
68386;SDS011;55338;43.062;25.624;2022-12-07T15:29:11;19.95;;;8.48;;
68386;SDS011;55338;43.062;25.624;2022-12-07T15:31:39;35.25;;;11.57;;
68386;SDS011;55338;43.062;25.624;2022-12-07T15:34:05;44.28;;;12.70;;
68386;SDS011;55338;43.062;25.624;2022-12-07T15:36:32;52.35;;;11.77;;
68386;SDS011;55338;43.062;25.624;2022-12-07T15:38:58;38.33;;;11.77;;
68386;SDS011;55338;43.062;25.624;2022-12-07T15:41:24;36.77;;;10.53;;
68386;SDS011;55338;43.062;25.624;2022-12-07T15:43:50;29.70;;;10.32;;
68386;SDS011;55338;43.062;25.624;2022-12-07T15:46:35;25.83;;;8.85;;
68386;SDS011;55338;43.062;25.624;2022-12-07T15:49:04;24.30;;;8.47;;
68386;SDS011;55338;43.062;25.624;2022-12-07T15:51:40;36.15;;;10.35;;
68386;SDS011;55338;43.062;25.624;2022-12-07T15:54:08;32.45;;;11.70;;
68386;SDS011;55338;43.062;25.624;2022-12-07T15:56:44;20.38;;;8.63;;
68386;SDS011;55338;43.062;25.624;2022-12-07T15:59:09;20.73;;;7.53;;
68386;SDS011;55338;43.062;25.624;2022-12-07T16:01:35;17.10;;;7.47;;
68386;SDS011;55338;43.062;25.624;2022-12-07T16:04:01;18.33;;;7.17;;
68386;SDS011;55338;43.062;25.624;2022-12-07T16:06:27;17.73;;;7.35;;
68386;SDS011;55338;43.062;25.624;2022-12-07T16:08:53;22.60;;;7.70;;
68386;SDS011;55338;43.062;25.624;2022-12-07T16:11:19;31.50;;;9.30;;
68386;SDS011;55338;43.062;25.624;2022-12-07T16:13:45;40.03;;;10.82;;
68386;SDS011;55338;43.062;25.624;2022-12-07T16:16:12;54.70;;;11.90;;
68386;SDS011;55338;43.062;25.624;2022-12-07T16:18:39;40.23;;;10.60;;
68386;SDS011;55338;43.062;25.624;2022-12-07T16:21:06;38.10;;;10.10;;
68386;SDS011;55338;43.062;25.624;2022-12-07T16:23:32;21.92;;;8.18;;
68386;SDS011;55338;43.062;25.624;2022-12-07T16:26:31;25.43;;;8.73;;
68386;SDS011;55338;43.062;25.624;2022-12-07T16:28:50;22.45;;;7.70;;
68386;SDS011;55338;43.062;25.624;2022-12-07T16:31:18;27.15;;;8.77;;
68386;SDS011;55338;43.062;25.624;2022-12-07T16:33:45;29.05;;;9.05;;
68386;SDS011;55338;43.062;25.624;2022-12-07T16:36:11;32.70;;;10.38;;
68386;SDS011;55338;43.062;25.624;2022-12-07T16:38:39;33.78;;;11.10;;
68386;SDS011;55338;43.062;25.624;2022-12-07T16:41:05;38.88;;;11.05;;
68386;SDS011;55338;43.062;25.624;2022-12-07T16:43:32;24.75;;;7.63;;
68386;SDS011;55338;43.062;25.624;2022-12-07T16:45:58;20.90;;;8.73;;
68386;SDS011;55338;43.062;25.624;2022-12-07T16:48:24;26.02;;;10.05;;
68386;SDS011;55338;43.062;25.624;2022-12-07T16:50:50;26.23;;;10.95;;
68386;SDS011;55338;43.062;25.624;2022-12-07T16:53:19;30.10;;;10.60;;
68386;SDS011;55338;43.062;25.624;2022-12-07T16:55:46;35.72;;;11.23;;